Portada
METAR-TAF:

METAR-TAF

Aeroports :

Visakhapatnam, Índia

latitud: 17-43-16N, longitud: 83-13-28E, altitud: 6 m

Observació

L'informe es va fer fa 42 minuts, a les 16:00 UTC
Vent 8 kt del Sud-Oest
Temperatura 30°C
Humitat 89%
Pressió 1003 hPa
Visibilitat: 4500 m
Núvols disperses a una alçada de 1800 ft
boirina,

METAR: VOVZ 181600Z 22008KT 4500 BR SCT018 30/28 Q1003 NOSIG

Hora: 22:12 (16:42 UTC)

Pronòstic

L'informe es va fer fa 2 hores i 42 minuts, a les 14:00 UTC
Pronòstic vàlid del 18 a les 15 UTC al 18 a les 24 UTC
Vent 10 kt del Sud-Oest
Visibilitat: 4500 m
Núvols disperses a una alçada de 1800 ft
boirina
Evolucionant progressivament
l' 18 a les 19 UTC al 18 a les 21 UTC
Vent 2 kt amb direcció variable

TAF: VOVZ 181400Z 1815/1824 23010KT 4500 BR SCT018 SCTO90 BECMG 1819/1821 VRB02KT

Observacions i pronòstics meteorològics de més de 4000 aeroports (METAR i TAF).

Les estacions disponibles són els punts grocs i vermells al mapa.

Posi el ratolí al punt desitjat per veure el nom de l'estació.

Feu clic per veure les observacions i els pronòstics meteorològics.

Per canviar el mapa: feu clic els botons verds amb una creu de color negre per apropar; al botó verd amb un guió per allunyar la imatge; o en les fletxes verdes per a mapes adjacents.


METAR-TAF: